Chef Menteur, Louisiana
Current Conditions -  °F | °C
As of 11:53 AM on Friday 28 Nov 2014 (Local Time) from KNEW Reporting Station
Clear Clear  
Wind Chill: 55°   Ceiling: Unl
Heat Index: 55°   Visibility: 10mi
Dew Point: 39°   Wind: 10mph
Humidity: 55%   Direction: 100°E
Pressure: 30.39"   Gusts: NA
Location:  29.9961°N, 90.0035°W
Report Text: KNEW 281753Z 10009KT 10SM CLR 13/04 A3039 RMK AO2 SLP284 T01280039 10128 20072 58020
Loading
Personal Weather Stations






























Interactive Weather Map New forecast layout! Learn more

10-Day Weather Forecast

Advertisements
Track Severe Weather on mobile